createdAt,value
2023-04-08T00:00:51.982Z,8.52
2023-04-08T00:02:58.207Z,8.98
2023-04-08T00:05:03.633Z,7.93
2023-04-08T00:07:08.788Z,8.25
2023-04-08T00:09:13.829Z,7.40
2023-04-08T00:11:21.543Z,8.63
2023-04-08T00:13:29.115Z,8.88
2023-04-08T00:15:34.284Z,8.82
2023-04-08T00:17:39.345Z,9.02
2023-04-08T00:19:44.770Z,8.95
2023-04-08T00:21:50.207Z,8.68
2023-04-08T00:23:55.686Z,12.07
2023-04-08T00:26:04.693Z,11.98
2023-04-08T00:28:12.296Z,10.13
2023-04-08T00:32:24.100Z,12.00
2023-04-08T00:34:31.030Z,12.15
2023-04-08T00:36:36.396Z,11.48
2023-04-08T00:38:41.424Z,12.50
2023-04-08T00:40:46.741Z,12.10
2023-04-08T00:42:51.799Z,12.95
2023-04-08T00:44:59.749Z,16.15
2023-04-08T00:47:06.557Z,16.67
2023-04-08T00:49:12.578Z,15.65
2023-04-08T00:51:18.093Z,14.40
2023-04-08T00:53:25.277Z,15.80
2023-04-08T00:57:37.002Z,16.38
2023-04-08T00:59:42.721Z,18.77
2023-04-08T01:01:58.624Z,16.40
2023-04-08T01:04:13.224Z,23.25
2023-04-08T01:06:28.522Z,16.70
2023-04-08T01:08:35.799Z,16.20
2023-04-08T01:10:45.802Z,20.05
2023-04-08T01:12:57.013Z,14.27
2023-04-08T01:15:08.646Z,16.25
2023-04-08T01:17:20.761Z,15.90
2023-04-08T01:19:33.689Z,13.13
2023-04-08T01:21:40.714Z,12.43
2023-04-08T01:24:04.253Z,13.57
2023-04-08T01:26:15.219Z,13.00
2023-04-08T01:28:22.094Z,12.25
2023-04-08T01:30:33.247Z,11.68
2023-04-08T01:32:39.551Z,12.38
2023-04-08T01:34:45.930Z,14.48
2023-04-08T01:36:52.469Z,14.55
2023-04-08T01:38:57.828Z,11.95
2023-04-08T01:41:03.366Z,12.07
2023-04-08T01:43:13.506Z,11.27
2023-04-08T01:45:19.757Z,10.43
2023-04-08T01:47:25.599Z,11.57
2023-04-08T01:49:31.753Z,10.95
2023-04-08T01:53:47.023Z,10.35
2023-04-08T01:56:00.132Z,10.77
2023-04-08T01:58:08.158Z,11.77
2023-04-08T02:00:21.435Z,11.20
2023-04-08T02:02:29.167Z,12.80
2023-04-08T02:04:34.499Z,12.20
2023-04-08T02:06:41.628Z,10.85
2023-04-08T02:08:46.938Z,10.77
2023-04-08T02:10:52.040Z,12.25
2023-04-08T02:12:58.124Z,10.85
2023-04-08T02:15:04.465Z,11.95
2023-04-08T02:17:15.698Z,11.68
2023-04-08T02:19:28.708Z,12.23
2023-04-08T02:21:41.043Z,11.60
2023-04-08T02:23:51.585Z,11.43
2023-04-08T02:25:59.820Z,12.85
2023-04-08T02:28:07.579Z,11.52
2023-04-08T02:30:15.902Z,17.05
2023-04-08T02:32:26.647Z,11.52
2023-04-08T02:34:34.572Z,12.95
2023-04-08T02:38:51.742Z,9.68
2023-04-08T02:40:58.225Z,12.38
2023-04-08T02:43:03.649Z,11.80
2023-04-08T02:45:11.507Z,15.65
2023-04-08T02:47:17.487Z,10.50
2023-04-08T02:49:26.338Z,10.77
2023-04-08T02:51:32.312Z,12.90
2023-04-08T02:53:37.391Z,12.35
2023-04-08T02:55:42.627Z,11.82
2023-04-08T02:57:50.677Z,12.85
2023-04-08T02:59:55.683Z,12.73
2023-04-08T03:02:01.249Z,13.43
2023-04-08T03:04:06.442Z,12.13
2023-04-08T03:06:14.384Z,12.23
2023-04-08T03:08:19.403Z,13.30
2023-04-08T03:10:24.442Z,14.07
2023-04-08T03:12:30.122Z,11.23
2023-04-08T03:14:35.439Z,11.07
2023-04-08T03:16:40.500Z,11.63
2023-04-08T03:18:45.554Z,10.95
2023-04-08T03:20:50.735Z,14.68
2023-04-08T03:22:58.827Z,13.60
2023-04-08T03:25:04.499Z,13.15
2023-04-08T03:27:12.903Z,12.52
2023-04-08T03:29:17.954Z,10.95
2023-04-08T03:31:24.127Z,19.20
2023-04-08T03:33:29.549Z,11.27
2023-04-08T03:35:34.603Z,15.15
2023-04-08T03:37:40.319Z,11.30
2023-04-08T03:39:48.047Z,14.05
2023-04-08T03:41:53.139Z,14.02
2023-04-08T03:43:58.163Z,13.52
2023-04-08T03:46:03.203Z,12.25
2023-04-08T03:48:09.541Z,12.90
2023-04-08T03:50:15.199Z,12.18
2023-04-08T03:52:20.789Z,12.57
2023-04-08T03:54:25.830Z,11.93
2023-04-08T03:56:33.450Z,12.60
2023-04-08T03:58:38.571Z,12.15
2023-04-08T04:00:43.874Z,12.23
2023-04-08T04:02:49.388Z,11.45
2023-04-08T04:04:54.622Z,12.07
2023-04-08T04:07:00.510Z,12.60
2023-04-08T04:09:05.611Z,11.65
2023-04-08T04:11:11.071Z,11.48
2023-04-08T04:13:19.738Z,10.18
2023-04-08T04:15:24.896Z,10.30
2023-04-08T04:17:30.001Z,10.65
2023-04-08T04:19:36.590Z,10.55
2023-04-08T04:21:41.614Z,10.30
2023-04-08T04:23:46.689Z,10.27
2023-04-08T04:25:54.300Z,10.50
2023-04-08T04:27:59.308Z,11.27
2023-04-08T04:30:09.564Z,11.80
2023-04-08T04:32:15.048Z,12.27
2023-04-08T04:34:20.438Z,12.75
2023-04-08T04:36:25.740Z,12.07
2023-04-08T04:38:33.282Z,11.68
2023-04-08T04:40:40.547Z,12.23
2023-04-08T04:42:45.621Z,11.52
2023-04-08T04:44:50.628Z,12.27
2023-04-08T04:47:00.596Z,12.35
2023-04-08T04:49:05.630Z,11.88
2023-04-08T04:51:10.993Z,12.00
2023-04-08T04:53:16.058Z,11.38
2023-04-08T04:55:22.532Z,10.35
2023-04-08T04:57:30.331Z,11.52
2023-04-08T04:59:35.875Z,11.27
2023-04-08T05:01:41.543Z,11.32
2023-04-08T05:03:49.280Z,12.35
2023-04-08T05:05:57.690Z,12.27
2023-04-08T05:08:02.704Z,12.30
2023-04-08T05:10:11.130Z,12.10
2023-04-08T05:12:16.418Z,12.10
2023-04-08T05:14:21.441Z,12.93
2023-04-08T05:16:26.470Z,12.10
2023-04-08T05:18:33.725Z,12.68
2023-04-08T05:20:41.385Z,12.98
2023-04-08T05:22:46.668Z,12.10
2023-04-08T05:24:51.737Z,11.95
2023-04-08T05:26:59.129Z,12.65
2023-04-08T05:29:05.126Z,11.88
2023-04-08T05:31:12.083Z,12.45
2023-04-08T05:33:17.128Z,11.30
2023-04-08T05:35:22.343Z,11.93
2023-04-08T05:37:30.159Z,11.60
2023-04-08T05:39:35.181Z,11.50
2023-04-08T05:41:40.183Z,11.23
2023-04-08T05:43:45.264Z,11.27
2023-04-08T05:45:50.272Z,11.55
2023-04-08T05:47:55.369Z,11.38
2023-04-08T05:50:00.528Z,11.88
2023-04-08T05:52:07.049Z,10.80
2023-04-08T05:54:14.694Z,11.73
2023-04-08T05:56:19.799Z,12.55
2023-04-08T05:58:24.829Z,12.10
2023-04-08T06:00:30.033Z,11.23
2023-04-08T06:02:35.572Z,12.05
2023-04-08T06:04:40.896Z,12.07
2023-04-08T06:06:46.062Z,11.82
2023-04-08T06:08:52.090Z,11.30
2023-04-08T06:10:59.974Z,12.32
2023-04-08T06:13:05.030Z,12.82
2023-04-08T06:15:11.829Z,12.23
2023-04-08T06:17:16.930Z,12.02
2023-04-08T06:19:21.963Z,11.50
2023-04-08T06:21:26.956Z,11.48
2023-04-08T06:23:32.048Z,11.07
2023-04-08T06:25:37.069Z,11.02
2023-04-08T06:27:45.073Z,10.23
2023-04-08T06:31:55.655Z,10.68
2023-04-08T06:34:00.679Z,11.10
2023-04-08T06:36:06.821Z,10.90
2023-04-08T06:38:11.918Z,10.85
2023-04-08T06:40:17.458Z,11.38
2023-04-08T06:42:23.194Z,11.50
2023-04-08T06:44:48.866Z,10.65
2023-04-08T06:48:59.296Z,9.98
2023-04-08T06:51:04.742Z,10.60
2023-04-08T06:53:09.770Z,9.93
2023-04-08T06:55:15.540Z,10.90
2023-04-08T06:57:20.528Z,10.57
2023-04-08T06:59:27.211Z,10.70
2023-04-08T07:01:38.209Z,11.20
2023-04-08T07:03:43.436Z,10.50
2023-04-08T07:05:49.550Z,11.00
2023-04-08T07:07:54.548Z,10.05
2023-04-08T07:09:59.712Z,9.68
2023-04-08T07:12:05.274Z,9.50
2023-04-08T07:14:10.401Z,9.07
2023-04-08T07:16:15.804Z,9.70
2023-04-08T07:18:23.943Z,9.52
2023-04-08T07:20:31.626Z,8.93
2023-04-08T07:22:37.928Z,9.65
2023-04-08T07:24:43.558Z,10.02
2023-04-08T07:26:50.568Z,10.73
2023-04-08T07:28:55.772Z,9.45
2023-04-08T07:31:12.459Z,8.70
2023-04-08T07:33:17.578Z,8.85
2023-04-08T07:35:26.692Z,8.13
2023-04-08T07:37:32.469Z,8.85
2023-04-08T07:39:37.504Z,9.05
2023-04-08T07:41:42.999Z,9.02
2023-04-08T07:43:48.373Z,8.70
2023-04-08T07:45:57.368Z,8.98
2023-04-08T07:48:02.695Z,8.15
2023-04-08T07:50:09.782Z,7.93
2023-04-08T07:52:18.523Z,7.47
2023-04-08T07:54:24.649Z,7.50
2023-04-08T07:56:29.674Z,7.40
2023-04-08T07:58:35.377Z,7.25
2023-04-08T08:00:41.024Z,6.32
2023-04-08T08:02:46.491Z,6.72
2023-04-08T08:04:52.096Z,6.43
2023-04-08T08:06:57.627Z,7.22
2023-04-08T08:09:05.305Z,7.38
2023-04-08T08:11:10.640Z,7.47
2023-04-08T08:13:17.660Z,7.32
2023-04-08T08:15:22.707Z,7.30
2023-04-08T08:17:31.136Z,7.82
2023-04-08T08:19:38.409Z,7.13
2023-04-08T08:21:43.991Z,6.25
2023-04-08T08:23:49.135Z,7.22
2023-04-08T08:26:06.588Z,7.45
2023-04-08T08:28:11.634Z,7.13
2023-04-08T08:30:16.792Z,6.95
2023-04-08T08:32:22.193Z,6.90
2023-04-08T08:34:29.613Z,6.95
2023-04-08T08:36:35.036Z,6.28
2023-04-08T08:38:40.268Z,6.20
2023-04-08T08:40:45.413Z,6.55
2023-04-08T08:42:59.281Z,6.32
2023-04-08T08:45:07.184Z,5.80
2023-04-08T08:49:17.543Z,5.90
2023-04-08T08:51:23.117Z,5.80
2023-04-08T08:53:35.906Z,5.13
2023-04-08T08:56:00.112Z,5.70
2023-04-08T08:58:10.268Z,5.70
2023-04-08T09:00:17.152Z,5.78
2023-04-08T09:02:35.077Z,5.93
2023-04-08T09:04:40.448Z,5.85
2023-04-08T09:06:46.904Z,6.15
2023-04-08T09:08:52.162Z,6.00
2023-04-08T09:10:57.628Z,6.22
2023-04-08T09:13:02.688Z,6.18
2023-04-08T09:15:12.914Z,6.40
2023-04-08T09:17:19.111Z,6.00
2023-04-08T09:19:24.236Z,6.70
2023-04-08T09:21:29.566Z,5.93
2023-04-08T09:23:42.963Z,6.35
2023-04-08T09:25:48.016Z,6.40
2023-04-08T09:27:53.108Z,6.70
2023-04-08T09:30:19.126Z,5.90
2023-04-08T09:32:24.313Z,5.75
2023-04-08T09:34:34.580Z,6.38
2023-04-08T09:36:39.726Z,6.28
2023-04-08T09:38:45.105Z,6.88
2023-04-08T09:40:51.354Z,6.97
2023-04-08T09:43:00.052Z,6.90
2023-04-08T09:45:09.724Z,6.40
2023-04-08T09:47:27.204Z,6.03
2023-04-08T09:49:39.508Z,6.10
2023-04-08T09:51:52.973Z,5.97
2023-04-08T09:54:04.457Z,6.40
2023-04-08T09:56:13.323Z,6.22
2023-04-08T09:58:23.691Z,5.97
2023-04-08T10:00:36.115Z,5.95
2023-04-08T10:02:59.385Z,6.22
2023-04-08T10:05:08.439Z,6.60
2023-04-08T10:07:19.373Z,6.20
2023-04-08T10:09:28.228Z,5.80
2023-04-08T10:11:33.845Z,6.40
2023-04-08T10:13:39.294Z,5.90
2023-04-08T10:15:47.680Z,5.72
2023-04-08T10:17:57.150Z,5.88
2023-04-08T10:20:02.191Z,5.05
2023-04-08T10:22:08.037Z,6.05
2023-04-08T10:24:14.290Z,5.85
2023-04-08T10:26:36.303Z,5.68
2023-04-08T10:28:41.379Z,5.75
2023-04-08T10:30:47.350Z,5.95
2023-04-08T10:32:56.632Z,6.03
2023-04-08T10:35:01.797Z,6.10
2023-04-08T10:37:10.868Z,5.35
2023-04-08T10:39:17.851Z,5.78
2023-04-08T10:41:27.630Z,5.97
2023-04-08T10:43:36.774Z,6.85
2023-04-08T10:45:43.367Z,6.15
2023-04-08T10:47:48.852Z,6.00
2023-04-08T10:49:56.790Z,5.88
2023-04-08T10:52:02.286Z,5.88
2023-04-08T10:54:11.308Z,5.15
2023-04-08T10:56:19.116Z,5.50
2023-04-08T10:58:24.321Z,6.05
2023-04-08T11:00:39.527Z,5.65
2023-04-08T11:02:45.012Z,5.60
2023-04-08T11:04:50.805Z,5.75
2023-04-08T11:07:01.614Z,5.65
2023-04-08T11:09:07.053Z,5.45
2023-04-08T11:11:12.560Z,5.65
2023-04-08T11:13:19.132Z,5.32
2023-04-08T11:15:25.262Z,5.83
2023-04-08T11:17:31.071Z,5.10
2023-04-08T11:19:39.420Z,5.75
2023-04-08T11:21:44.897Z,5.53
2023-04-08T11:23:54.100Z,5.85
2023-04-08T11:26:00.212Z,5.25
2023-04-08T11:28:05.968Z,5.32
2023-04-08T11:30:12.971Z,5.30
2023-04-08T11:32:19.133Z,5.18
2023-04-08T11:34:28.332Z,5.13
2023-04-08T11:36:35.421Z,5.60
2023-04-08T11:38:43.497Z,5.20
2023-04-08T11:43:12.400Z,5.00
2023-04-08T11:45:19.830Z,5.25
2023-04-08T11:47:25.796Z,5.35
2023-04-08T11:49:31.258Z,5.50
2023-04-08T11:51:38.021Z,5.68
2023-04-08T11:53:48.101Z,5.32
2023-04-08T11:55:57.865Z,5.30
2023-04-08T11:58:07.746Z,5.43
2023-04-08T12:00:14.095Z,5.65
2023-04-08T12:02:19.509Z,5.63
2023-04-08T12:04:24.769Z,5.03
2023-04-08T12:06:30.155Z,5.28
2023-04-08T12:08:36.818Z,5.13
2023-04-08T12:10:41.888Z,5.03
2023-04-08T12:12:49.540Z,4.53
2023-04-08T12:14:54.826Z,5.53
2023-04-08T12:17:00.214Z,4.10
2023-04-08T12:19:05.229Z,5.43
2023-04-08T12:21:10.364Z,4.68
2023-04-08T12:23:15.756Z,4.25
2023-04-08T12:25:21.588Z,4.40
2023-04-08T12:27:26.620Z,4.07
2023-04-08T12:29:34.595Z,4.07
2023-04-08T12:31:39.689Z,4.53
2023-04-08T12:33:44.733Z,4.70
2023-04-08T12:35:52.027Z,4.65
2023-04-08T12:37:57.082Z,4.95
2023-04-08T12:40:02.236Z,4.30
2023-04-08T12:42:07.874Z,3.90
2023-04-08T12:44:13.464Z,4.72
2023-04-08T12:46:21.661Z,4.25
2023-04-08T12:48:29.328Z,4.75
2023-04-08T12:52:39.925Z,4.20
2023-04-08T12:54:45.023Z,4.32
2023-04-08T12:56:50.214Z,4.00
2023-04-08T12:58:55.932Z,4.30
2023-04-08T13:01:00.997Z,4.00
2023-04-08T13:03:11.569Z,4.03
2023-04-08T13:05:19.742Z,4.35
2023-04-08T13:07:26.717Z,4.07
2023-04-08T13:09:32.249Z,4.28
2023-04-08T13:11:39.659Z,3.63
2023-04-08T13:13:46.512Z,3.70
2023-04-08T13:15:52.313Z,3.92
2023-04-08T13:17:57.438Z,4.10
2023-04-08T13:20:05.241Z,3.70
2023-04-08T13:22:10.274Z,3.65
2023-04-08T13:24:16.333Z,3.90
2023-04-08T13:26:21.570Z,3.95
2023-04-08T13:28:28.361Z,4.45
2023-04-08T13:30:33.836Z,3.55
2023-04-08T13:32:38.880Z,3.65
2023-04-08T13:34:43.906Z,3.90
2023-04-08T13:36:53.533Z,3.40
2023-04-08T13:38:58.707Z,3.90
2023-04-08T13:41:04.271Z,4.05
2023-04-08T13:43:09.825Z,3.97
2023-04-08T13:45:17.516Z,4.30
2023-04-08T13:49:28.160Z,3.90
2023-04-08T13:51:33.175Z,4.10
2023-04-08T13:53:40.855Z,4.07
2023-04-08T13:57:52.766Z,3.55
2023-04-08T13:59:58.089Z,3.53
2023-04-08T14:02:03.794Z,3.95
2023-04-08T14:04:09.197Z,4.60
2023-04-08T14:06:16.415Z,4.60
2023-04-08T14:08:25.827Z,4.50
2023-04-08T14:10:33.882Z,4.43
2023-04-08T14:12:38.898Z,4.45
2023-04-08T14:14:43.928Z,4.20
2023-04-08T14:16:49.723Z,4.43
2023-04-08T14:18:54.811Z,4.53
2023-04-08T14:21:00.332Z,4.30
2023-04-08T14:23:05.328Z,4.40
2023-04-08T14:25:15.676Z,4.43
2023-04-08T14:27:23.284Z,4.45
2023-04-08T14:31:33.647Z,4.60
2023-04-08T14:33:40.858Z,4.43
2023-04-08T14:35:48.093Z,5.05
2023-04-08T14:37:53.221Z,4.78
2023-04-08T14:39:58.262Z,4.47
2023-04-08T14:42:03.445Z,4.72
2023-04-08T14:44:12.052Z,4.50
2023-04-08T14:46:19.722Z,4.45
2023-04-08T14:50:31.869Z,4.70
2023-04-08T14:52:37.205Z,5.47
2023-04-08T14:54:43.012Z,7.13
2023-04-08T14:56:48.930Z,4.72
2023-04-08T14:58:54.003Z,4.95
2023-04-08T15:01:01.750Z,4.45
2023-04-08T15:03:07.271Z,4.88
2023-04-08T15:05:13.135Z,4.38
2023-04-08T15:07:18.571Z,4.47
2023-04-08T15:09:23.854Z,4.18
2023-04-08T15:11:31.004Z,4.28
2023-04-08T15:13:36.219Z,4.25
2023-04-08T15:15:41.498Z,4.43
2023-04-08T15:17:51.002Z,4.82
2023-04-08T15:19:58.766Z,4.78
2023-04-08T15:22:04.084Z,4.60
2023-04-08T15:24:09.368Z,5.25
2023-04-08T15:26:14.601Z,4.60
2023-04-08T15:31:27.428Z,4.32
2023-04-08T15:33:35.549Z,5.80
2023-04-08T15:35:41.418Z,6.25
2023-04-08T15:37:46.467Z,6.13
2023-04-08T15:39:51.514Z,5.30
2023-04-08T15:41:56.838Z,5.22
2023-04-08T15:44:02.910Z,4.72
2023-04-08T15:46:08.221Z,4.70
2023-04-08T15:48:14.613Z,4.35
2023-04-08T15:50:22.614Z,4.50
2023-04-08T15:52:29.348Z,4.43
2023-04-08T15:54:39.783Z,5.03
2023-04-08T15:56:47.339Z,4.88
2023-04-08T15:58:54.868Z,4.38
2023-04-08T16:01:00.510Z,4.80
2023-04-08T16:03:08.730Z,4.80
2023-04-08T16:05:13.953Z,4.95
2023-04-08T16:07:21.802Z,4.53
2023-04-08T16:11:32.321Z,4.28
2023-04-08T16:13:39.416Z,4.10
2023-04-08T16:15:46.074Z,4.25
2023-04-08T16:17:54.379Z,4.38
2023-04-08T16:20:00.750Z,4.90
2023-04-08T16:22:06.013Z,4.95
2023-04-08T16:24:14.403Z,4.95
2023-04-08T16:26:21.956Z,4.90
2023-04-08T16:28:27.697Z,5.45
2023-04-08T16:30:32.738Z,4.97
2023-04-08T16:32:37.799Z,6.78
2023-04-08T16:34:42.812Z,7.80
2023-04-08T16:36:48.246Z,6.72
2023-04-08T16:38:53.848Z,6.88
2023-04-08T16:41:04.629Z,9.52
2023-04-08T16:43:09.636Z,7.20
2023-04-08T16:45:15.886Z,8.60
2023-04-08T16:47:20.971Z,7.80
2023-04-08T16:49:26.080Z,6.32
2023-04-08T16:51:33.521Z,5.78
2023-04-08T16:53:38.670Z,5.78
2023-04-08T16:55:46.077Z,6.20
2023-04-08T16:57:53.687Z,5.32
2023-04-08T16:59:58.755Z,5.97
2023-04-08T17:02:03.842Z,6.13
2023-04-08T17:04:08.965Z,6.45
2023-04-08T17:06:17.381Z,6.15
2023-04-08T17:08:23.908Z,5.70
2023-04-08T17:10:29.026Z,6.55
2023-04-08T17:12:34.134Z,6.35
2023-04-08T17:14:41.726Z,6.82
2023-04-08T17:16:49.086Z,6.93
2023-04-08T17:18:54.299Z,7.20
2023-04-08T17:20:59.449Z,6.57
2023-04-08T17:23:04.762Z,6.85
2023-04-08T17:25:11.702Z,7.15
2023-04-08T17:27:18.852Z,7.50
2023-04-08T17:29:23.847Z,7.22
2023-04-08T17:31:31.567Z,7.32
2023-04-08T17:35:44.965Z,7.40
2023-04-08T17:37:50.394Z,7.90
2023-04-08T17:39:57.134Z,7.82
2023-04-08T17:42:04.301Z,7.47
2023-04-08T17:44:09.367Z,7.72
2023-04-08T17:46:14.707Z,7.75
2023-04-08T17:48:23.554Z,6.72
2023-04-08T17:50:28.858Z,7.68
2023-04-08T17:52:34.084Z,7.65
2023-04-08T17:54:39.169Z,8.15
2023-04-08T17:56:45.158Z,7.60
2023-04-08T17:58:51.057Z,8.00
2023-04-08T18:00:56.326Z,7.22
2023-04-08T18:03:01.479Z,7.47
2023-04-08T18:05:09.839Z,7.47
2023-04-08T18:07:14.835Z,7.68
2023-04-08T18:09:21.052Z,7.60
2023-04-08T18:11:27.224Z,7.80
2023-04-08T18:13:32.206Z,7.80
2023-04-08T18:15:38.846Z,7.32
2023-04-08T18:17:44.073Z,7.30
2023-04-08T18:19:49.060Z,8.10
2023-04-08T18:21:56.683Z,8.65
2023-04-08T18:24:02.130Z,10.05
2023-04-08T18:26:07.407Z,9.07
2023-04-08T18:28:12.474Z,9.75
2023-04-08T18:30:17.634Z,10.25
2023-04-08T18:32:22.849Z,9.75
2023-04-08T18:34:27.964Z,9.75
2023-04-08T18:36:33.235Z,10.13
2023-04-08T18:38:41.977Z,9.80
2023-04-08T18:40:48.394Z,9.77
2023-04-08T18:42:53.512Z,9.77
2023-04-08T18:44:58.728Z,9.57
2023-04-08T18:47:03.811Z,10.00
2023-04-08T18:49:08.860Z,9.65
2023-04-08T18:51:14.321Z,9.88
2023-04-08T18:53:19.453Z,9.93
2023-04-08T18:55:27.146Z,9.57
2023-04-08T18:57:32.441Z,10.40
2023-04-08T18:59:40.439Z,10.00
2023-04-08T19:01:45.739Z,9.60
2023-04-08T19:03:51.053Z,9.55
2023-04-08T19:05:56.481Z,9.57
2023-04-08T19:08:02.026Z,9.88
2023-04-08T19:10:08.432Z,10.18
2023-04-08T19:12:16.243Z,10.02
2023-04-08T19:16:26.542Z,9.07
2023-04-08T19:18:31.702Z,10.30
2023-04-08T19:20:36.777Z,9.20
2023-04-08T19:22:41.875Z,9.38
2023-04-08T19:24:46.884Z,8.63
2023-04-08T19:26:53.260Z,7.85
2023-04-08T19:29:01.271Z,8.57
2023-04-08T19:31:06.747Z,8.30
2023-04-08T19:33:11.811Z,8.40
2023-04-08T19:35:16.965Z,8.60
2023-04-08T19:37:21.964Z,9.93
2023-04-08T19:39:28.633Z,8.98
2023-04-08T19:41:34.003Z,10.03
2023-04-08T19:43:39.109Z,11.45
2023-04-08T19:45:47.391Z,9.98
2023-04-08T19:47:52.729Z,11.00
2023-04-08T19:49:58.425Z,11.82
2023-04-08T19:52:03.484Z,10.43
2023-04-08T19:54:08.519Z,10.63
2023-04-08T19:56:13.889Z,11.15
2023-04-08T19:58:18.971Z,10.55
2023-04-08T20:00:26.165Z,11.32
2023-04-08T20:02:33.955Z,11.45
2023-04-08T20:06:44.192Z,11.27
2023-04-08T20:08:50.532Z,11.52
2023-04-08T20:10:55.757Z,11.73
2023-04-08T20:13:00.895Z,11.32
2023-04-08T20:15:09.340Z,11.45
2023-04-08T20:17:20.977Z,12.07
2023-04-08T20:19:29.037Z,11.15
2023-04-08T20:21:34.150Z,11.25
2023-04-08T20:23:44.143Z,10.73
2023-04-08T20:25:49.219Z,11.30
2023-04-08T20:27:56.501Z,11.27
2023-04-08T20:30:01.543Z,11.02
2023-04-08T20:32:07.485Z,10.48
2023-04-08T20:34:12.982Z,10.45
2023-04-08T20:36:20.858Z,10.60
2023-04-08T20:40:32.899Z,11.45
2023-04-08T20:42:38.712Z,11.52
2023-04-08T20:44:43.734Z,12.10
2023-04-08T20:46:49.865Z,12.05
2023-04-08T20:48:54.985Z,11.55
2023-04-08T20:51:00.351Z,11.98
2023-04-08T20:53:10.354Z,11.57
2023-04-08T20:55:16.841Z,11.98
2023-04-08T20:57:21.921Z,11.98
2023-04-08T20:59:28.378Z,10.88
2023-04-08T21:01:33.659Z,12.75
2023-04-08T21:03:38.943Z,12.85
2023-04-08T21:05:44.139Z,10.98
2023-04-08T21:07:49.270Z,12.45
2023-04-08T21:09:57.201Z,12.55
2023-04-08T21:14:07.219Z,10.88
2023-04-08T21:16:12.554Z,10.55
2023-04-08T21:18:17.598Z,11.10
2023-04-08T21:20:22.722Z,11.45
2023-04-08T21:22:28.920Z,10.57
2023-04-08T21:24:33.943Z,10.32
2023-04-08T21:26:41.620Z,10.90
2023-04-08T21:28:46.836Z,10.70
2023-04-08T21:30:52.402Z,10.80
2023-04-08T21:32:57.564Z,10.90
2023-04-08T21:35:02.738Z,10.88
2023-04-08T21:37:07.909Z,10.95
2023-04-08T21:39:13.048Z,10.98
2023-04-08T21:41:18.309Z,11.18
2023-04-08T21:43:27.408Z,10.45
2023-04-08T21:45:32.475Z,10.63
2023-04-08T21:47:40.134Z,10.75
2023-04-08T21:49:45.484Z,11.70
2023-04-08T21:51:52.945Z,11.25
2023-04-08T21:53:58.315Z,10.88
2023-04-08T21:56:03.488Z,10.82
2023-04-08T21:58:12.497Z,11.77
2023-04-08T22:00:20.298Z,11.45
2023-04-08T22:02:25.559Z,11.48
2023-04-08T22:04:31.036Z,12.32
2023-04-08T22:06:38.480Z,12.00
2023-04-08T22:08:43.568Z,12.13
2023-04-08T22:10:48.741Z,12.00
2023-04-08T22:12:53.911Z,12.77
2023-04-08T22:14:59.079Z,12.70
2023-04-08T22:17:07.221Z,11.85
2023-04-08T22:19:12.286Z,12.43
2023-04-08T22:21:17.481Z,12.80
2023-04-08T22:23:22.622Z,13.40
2023-04-08T22:25:28.166Z,12.82
2023-04-08T22:27:33.294Z,12.50
2023-04-08T22:29:38.665Z,13.32
2023-04-08T22:31:43.987Z,12.52
2023-04-08T22:33:51.610Z,13.68
2023-04-08T22:35:56.690Z,14.05
2023-04-08T22:38:01.752Z,12.73
2023-04-08T22:40:08.326Z,12.07
2023-04-08T22:42:13.398Z,13.45
2023-04-08T22:44:18.697Z,12.65
2023-04-08T22:46:23.759Z,12.70
2023-04-08T22:48:28.837Z,12.05
2023-04-08T22:50:36.730Z,13.15
2023-04-08T22:54:47.215Z,12.23
2023-04-08T22:56:56.976Z,11.50
2023-04-08T22:59:02.041Z,11.23
2023-04-08T23:01:14.515Z,12.48
2023-04-08T23:03:19.647Z,12.10
2023-04-08T23:05:25.085Z,12.32
2023-04-08T23:07:32.760Z,12.55
2023-04-08T23:09:37.806Z,11.65
2023-04-08T23:11:43.137Z,12.38
2023-04-08T23:13:48.165Z,11.73
2023-04-08T23:15:53.242Z,11.68
2023-04-08T23:17:58.313Z,12.27
2023-04-08T23:20:05.973Z,12.27
2023-04-08T23:22:11.099Z,12.95
2023-04-08T23:24:20.489Z,13.02
2023-04-08T23:26:25.770Z,12.88
2023-04-08T23:28:30.815Z,12.90
2023-04-08T23:30:35.911Z,12.10
2023-04-08T23:32:41.076Z,13.02
2023-04-08T23:34:46.071Z,12.57
2023-04-08T23:36:51.213Z,12.70
2023-04-08T23:38:56.277Z,13.43
2023-04-08T23:41:03.912Z,14.73
2023-04-08T23:43:08.904Z,13.45
2023-04-08T23:45:14.292Z,12.07
2023-04-08T23:47:19.321Z,14.15
2023-04-08T23:49:24.366Z,15.15
2023-04-08T23:51:29.506Z,16.15
2023-04-08T23:53:34.544Z,14.30
2023-04-08T23:55:41.877Z,15.30
2023-04-08T23:57:50.936Z,15.23
2023-04-08T23:59:56.024Z,15.23
